createdAt,value
2023-01-04T00:00:12.506Z,7.15
2023-01-04T00:02:48.396Z,4.53
2023-01-04T00:05:15.438Z,3.88
2023-01-04T00:07:43.317Z,2.47
2023-01-04T00:10:10.411Z,2.50
2023-01-04T00:12:37.294Z,2.35
2023-01-04T00:15:05.054Z,8.65
2023-01-04T00:17:33.840Z,4.43
2023-01-04T00:20:00.789Z,2.47
2023-01-04T00:22:27.713Z,4.43
2023-01-04T00:24:54.724Z,4.18
2023-01-04T00:27:21.537Z,1.73
2023-01-04T00:29:48.537Z,3.58
2023-01-04T00:32:16.235Z,4.15
2023-01-04T00:34:43.514Z,5.25
2023-01-04T00:37:10.526Z,1.83
2023-01-04T00:39:37.717Z,2.60
2023-01-04T00:42:07.467Z,2.50
2023-01-04T00:44:35.603Z,8.18
2023-01-04T00:47:03.812Z,3.70
2023-01-04T00:49:31.529Z,8.70
2023-01-04T00:51:59.217Z,3.75
2023-01-04T00:54:26.329Z,4.35
2023-01-04T00:56:53.505Z,8.38
2023-01-04T00:59:22.205Z,3.25
2023-01-04T01:01:49.615Z,2.50
2023-01-04T01:04:20.126Z,3.42
2023-01-04T01:06:47.684Z,3.70
2023-01-04T01:09:15.510Z,3.58
2023-01-04T01:11:42.670Z,4.25
2023-01-04T01:14:17.657Z,3.38
2023-01-04T01:17:01.644Z,2.80
2023-01-04T01:19:29.755Z,2.47
2023-01-04T01:21:59.241Z,3.45
2023-01-04T01:24:27.199Z,2.70
2023-01-04T01:26:54.842Z,2.50
2023-01-04T01:29:21.970Z,3.08
2023-01-04T01:31:50.159Z,2.30
2023-01-04T01:34:17.336Z,5.35
2023-01-04T01:36:44.346Z,5.43
2023-01-04T01:39:11.327Z,3.90
2023-01-04T01:41:38.411Z,5.28
2023-01-04T01:44:32.847Z,3.33
2023-01-04T01:46:59.989Z,2.97
2023-01-04T01:49:33.872Z,4.25
2023-01-04T01:52:09.257Z,3.40
2023-01-04T01:54:44.811Z,4.72
2023-01-04T01:57:16.881Z,4.65
2023-01-04T01:59:45.941Z,4.38
2023-01-04T02:02:12.958Z,5.82
2023-01-04T02:04:44.735Z,5.93
2023-01-04T02:07:14.643Z,4.10
2023-01-04T02:09:44.244Z,5.13
2023-01-04T02:12:12.958Z,5.43
2023-01-04T02:14:43.508Z,5.90
2023-01-04T02:17:39.838Z,3.67
2023-01-04T02:20:38.721Z,7.65
2023-01-04T02:23:42.829Z,6.78
2023-01-04T02:26:40.345Z,4.07
2023-01-04T02:34:09.960Z,5.70
2023-01-04T02:37:07.482Z,4.10
2023-01-04T02:40:04.444Z,3.00
2023-01-04T02:43:00.029Z,6.70
2023-01-04T02:45:32.326Z,6.85
2023-01-04T02:48:24.463Z,5.53
2023-01-04T02:50:57.833Z,3.47
2023-01-04T02:53:28.582Z,4.50
2023-01-04T02:56:10.304Z,4.40
2023-01-04T02:58:59.074Z,4.32
2023-01-04T03:02:30.544Z,8.00
2023-01-04T03:05:42.359Z,6.60
2023-01-04T03:08:23.295Z,5.22
2023-01-04T03:11:28.440Z,7.30
2023-01-04T03:14:31.333Z,5.00
2023-01-04T03:17:06.119Z,6.40
2023-01-04T03:19:52.107Z,5.30
2023-01-04T03:22:45.679Z,4.68
2023-01-04T03:25:32.762Z,8.07
2023-01-04T03:28:19.017Z,4.40
2023-01-04T03:31:13.373Z,8.10
2023-01-04T03:33:59.441Z,4.80
2023-01-04T03:36:32.436Z,6.40
2023-01-04T03:39:34.408Z,9.82
2023-01-04T03:42:32.564Z,4.65
2023-01-04T03:45:42.974Z,4.50
2023-01-04T03:48:33.530Z,4.82
2023-01-04T03:51:25.843Z,9.95
2023-01-04T03:54:07.991Z,4.10
2023-01-04T03:56:41.753Z,4.25
2023-01-04T03:59:11.861Z,4.32
2023-01-04T04:01:39.682Z,7.43
2023-01-04T04:04:26.554Z,4.50
2023-01-04T04:07:13.231Z,5.88
2023-01-04T04:09:40.308Z,2.08
2023-01-04T04:12:07.283Z,5.35
2023-01-04T04:14:34.593Z,2.90
2023-01-04T04:17:01.778Z,5.90
2023-01-04T04:19:28.813Z,3.70
2023-01-04T04:21:55.694Z,5.65
2023-01-04T04:24:24.853Z,5.57
2023-01-04T04:26:54.467Z,3.53
2023-01-04T04:29:23.129Z,2.42
2023-01-04T04:31:50.249Z,4.22
2023-01-04T04:34:18.437Z,1.92
2023-01-04T04:36:45.294Z,7.60
2023-01-04T04:39:12.831Z,4.70
2023-01-04T04:41:42.455Z,4.40
2023-01-04T04:44:15.196Z,6.00
2023-01-04T04:46:43.384Z,5.13
2023-01-04T04:49:11.000Z,5.90
2023-01-04T04:51:40.528Z,4.72
2023-01-04T04:54:09.284Z,3.92
2023-01-04T04:56:37.074Z,2.83
2023-01-04T04:59:05.525Z,2.50
2023-01-04T05:01:33.507Z,3.70
2023-01-04T05:04:04.575Z,2.33
2023-01-04T05:07:26.881Z,1.92
2023-01-04T05:09:53.871Z,1.48
2023-01-04T05:12:41.788Z,4.13
2023-01-04T05:15:08.905Z,1.40
2023-01-04T05:17:35.826Z,1.98
2023-01-04T05:20:04.701Z,3.13
2023-01-04T05:22:31.668Z,3.70
2023-01-04T05:24:59.146Z,2.67
2023-01-04T05:27:26.064Z,4.55
2023-01-04T05:30:11.404Z,5.25
2023-01-04T05:32:39.361Z,2.50
2023-01-04T05:35:06.582Z,0.95
2023-01-04T05:37:33.714Z,5.75
2023-01-04T05:40:00.719Z,2.13
2023-01-04T05:42:28.316Z,2.65
2023-01-04T05:44:57.896Z,2.42
2023-01-04T05:47:28.030Z,4.28
2023-01-04T05:49:54.938Z,3.55
2023-01-04T05:52:21.992Z,0.95
2023-01-04T05:54:49.208Z,1.80
2023-01-04T05:57:16.693Z,1.60
2023-01-04T05:59:44.828Z,3.17
2023-01-04T06:02:21.583Z,5.53
2023-01-04T06:04:54.607Z,4.15
2023-01-04T06:07:28.604Z,4.03
2023-01-04T06:10:19.659Z,3.08
2023-01-04T06:17:18.420Z,1.42
2023-01-04T06:20:02.125Z,1.48
2023-01-04T06:31:59.218Z,5.63
2023-01-04T06:34:31.136Z,2.22
2023-01-04T06:36:59.666Z,3.25
2023-01-04T06:39:29.667Z,4.55
2023-01-04T06:42:03.775Z,3.50
2023-01-04T06:44:34.113Z,3.60
2023-01-04T06:47:02.003Z,4.82
2023-01-04T06:49:29.250Z,5.30
2023-01-04T06:51:56.108Z,4.78
2023-01-04T06:54:23.001Z,3.95
2023-01-04T06:56:49.965Z,3.42
2023-01-04T06:59:18.160Z,6.60
2023-01-04T07:01:46.510Z,3.92
2023-01-04T07:04:13.583Z,6.18
2023-01-04T07:06:41.566Z,4.15
2023-01-04T07:09:09.515Z,4.68
2023-01-04T07:11:36.432Z,3.78
2023-01-04T07:14:03.279Z,5.03
2023-01-04T07:16:37.298Z,3.65
2023-01-04T07:19:04.551Z,1.48
2023-01-04T07:21:32.360Z,5.28
2023-01-04T07:24:00.344Z,8.38
2023-01-04T07:29:20.227Z,3.90
2023-01-04T07:31:51.003Z,3.22
2023-01-04T07:34:19.846Z,2.72
2023-01-04T07:36:48.668Z,3.08
2023-01-04T07:39:17.046Z,2.90
2023-01-04T07:41:45.828Z,4.28
2023-01-04T07:44:21.664Z,4.93
2023-01-04T07:46:54.204Z,5.88
2023-01-04T07:49:21.421Z,4.50
2023-01-04T07:51:49.779Z,1.67
2023-01-04T07:54:18.245Z,3.72
2023-01-04T07:56:48.758Z,2.03
2023-01-04T07:59:18.796Z,2.20
2023-01-04T08:01:48.085Z,4.68
2023-01-04T08:04:17.859Z,4.15
2023-01-04T08:06:47.602Z,3.90
2023-01-04T08:09:14.966Z,4.90
2023-01-04T08:11:44.676Z,4.10
2023-01-04T08:14:13.331Z,1.27
2023-01-04T08:16:43.142Z,2.30
2023-01-04T08:19:18.933Z,2.75
2023-01-04T08:21:46.363Z,3.90
2023-01-04T08:24:18.911Z,2.15
2023-01-04T08:29:17.118Z,1.77
2023-01-04T08:31:45.292Z,1.00
2023-01-04T08:34:13.188Z,2.90
2023-01-04T08:36:50.017Z,3.30
2023-01-04T08:39:18.119Z,4.13
2023-01-04T08:42:04.810Z,5.22
2023-01-04T08:44:57.112Z,4.30
2023-01-04T08:47:25.948Z,4.70
2023-01-04T08:49:56.917Z,4.40
2023-01-04T08:52:27.150Z,3.75
2023-01-04T08:54:55.504Z,4.88
2023-01-04T08:57:23.729Z,3.42
2023-01-04T08:59:52.855Z,12.20
2023-01-04T09:02:25.750Z,3.03
2023-01-04T09:07:33.359Z,1.40
2023-01-04T09:10:01.258Z,7.47
2023-01-04T09:12:28.129Z,4.60
2023-01-04T09:14:55.034Z,4.55
2023-01-04T09:17:22.992Z,6.25
2023-01-04T09:19:49.832Z,7.78
2023-01-04T09:22:17.018Z,4.40
2023-01-04T09:24:44.033Z,3.50
2023-01-04T09:27:11.162Z,3.67
2023-01-04T09:29:38.233Z,7.30
2023-01-04T09:32:06.754Z,2.53
2023-01-04T09:34:42.458Z,3.70
2023-01-04T09:37:13.074Z,5.28
2023-01-04T09:42:37.712Z,3.53
2023-01-04T09:45:23.973Z,1.50
2023-01-04T09:48:08.843Z,5.38
2023-01-04T09:50:54.361Z,6.20
2023-01-04T09:53:54.761Z,3.38
2023-01-04T09:56:36.329Z,2.50
2023-01-04T09:59:08.690Z,2.70
2023-01-04T10:01:58.145Z,4.30
2023-01-04T10:04:40.971Z,4.28
2023-01-04T10:09:42.866Z,3.78
2023-01-04T10:12:29.241Z,3.67
2023-01-04T10:15:06.928Z,4.15
2023-01-04T10:19:28.669Z,3.00
2023-01-04T10:24:09.245Z,3.72
2023-01-04T10:26:47.029Z,1.33
2023-01-04T10:29:36.321Z,9.77
2023-01-04T10:32:14.459Z,2.28
2023-01-04T10:34:47.581Z,3.88
2023-01-04T10:37:18.692Z,4.35
2023-01-04T10:39:51.179Z,0.77
2023-01-04T10:42:34.584Z,6.13
2023-01-04T10:45:38.225Z,4.68
2023-01-04T10:48:23.649Z,1.40
2023-01-04T10:51:09.886Z,2.63
2023-01-04T10:53:51.204Z,2.17
2023-01-04T10:56:26.356Z,5.72
2023-01-04T10:59:07.963Z,6.13
2023-01-04T11:01:43.875Z,3.03
2023-01-04T11:04:23.981Z,5.07
2023-01-04T11:06:53.638Z,4.45
2023-01-04T11:09:33.135Z,1.20
2023-01-04T11:12:02.068Z,4.65
2023-01-04T11:14:37.026Z,2.47
2023-01-04T11:17:05.908Z,3.13
2023-01-04T11:19:33.918Z,1.77
2023-01-04T11:22:20.731Z,3.40
2023-01-04T11:25:33.247Z,3.13
2023-01-04T11:28:12.271Z,7.10
2023-01-04T11:30:45.845Z,3.83
2023-01-04T11:33:18.905Z,1.30
2023-01-04T11:35:56.131Z,5.15
2023-01-04T11:38:25.751Z,4.82
2023-01-04T11:41:07.297Z,4.57
2023-01-04T11:43:39.469Z,3.30
2023-01-04T11:46:21.726Z,3.80
2023-01-04T11:48:48.985Z,2.60
2023-01-04T11:51:28.953Z,4.60
2023-01-04T11:54:01.928Z,4.47
2023-01-04T11:56:37.341Z,5.95
2023-01-04T11:59:24.771Z,3.92
2023-01-04T12:02:11.005Z,2.50
2023-01-04T12:04:39.675Z,1.80
2023-01-04T12:07:33.073Z,2.45
2023-01-04T12:10:02.661Z,3.65
2023-01-04T12:12:32.475Z,3.70
2023-01-04T12:15:19.185Z,3.63
2023-01-04T12:17:49.194Z,3.35
2023-01-04T12:20:21.614Z,9.52
2023-01-04T12:25:30.039Z,3.58
2023-01-04T12:27:57.029Z,8.23
2023-01-04T12:30:39.112Z,4.32
2023-01-04T12:33:30.903Z,4.00
2023-01-04T12:40:44.659Z,2.13
2023-01-04T12:43:24.694Z,6.80
2023-01-04T12:46:49.770Z,5.93
2023-01-04T12:49:47.640Z,4.78
2023-01-04T12:52:32.373Z,2.60
2023-01-04T12:55:31.648Z,3.80
2023-01-04T13:02:17.630Z,7.70
2023-01-04T13:04:59.107Z,4.55
2023-01-04T13:07:55.370Z,4.15
2023-01-04T13:10:35.462Z,4.00
2023-01-04T13:13:14.020Z,2.65
2023-01-04T13:15:47.092Z,2.83
2023-01-04T13:18:34.315Z,2.13
2023-01-04T13:21:43.982Z,3.72
2023-01-04T13:24:29.525Z,2.20
2023-01-04T13:27:07.785Z,4.75
2023-01-04T13:29:36.730Z,4.65
2023-01-04T13:32:33.432Z,3.13
2023-01-04T13:35:14.919Z,12.07
2023-01-04T13:37:47.731Z,3.10
2023-01-04T13:42:58.719Z,3.70
2023-01-04T13:45:50.530Z,2.20
2023-01-04T13:48:24.086Z,4.32
2023-01-04T13:51:05.790Z,3.70
2023-01-04T13:53:33.571Z,4.63
2023-01-04T13:56:02.986Z,7.32
2023-01-04T13:58:34.326Z,2.90
2023-01-04T14:01:12.670Z,3.38
2023-01-04T14:03:45.943Z,2.55
2023-01-04T14:06:15.721Z,2.88
2023-01-04T14:09:07.348Z,3.25
2023-01-04T14:12:03.740Z,1.30
2023-01-04T14:14:45.253Z,2.30
2023-01-04T14:17:48.544Z,2.40
2023-01-04T14:20:19.935Z,2.38
2023-01-04T14:22:46.864Z,2.97
2023-01-04T14:25:36.777Z,2.55
2023-01-04T14:28:25.319Z,2.38
2023-01-04T14:31:14.228Z,1.40
2023-01-04T14:33:48.692Z,1.80
2023-01-04T14:36:22.639Z,1.75
2023-01-04T14:39:11.721Z,2.17
2023-01-04T14:41:51.492Z,2.97
2023-01-04T14:44:22.745Z,1.27
2023-01-04T14:46:56.976Z,3.25
2023-01-04T14:49:28.243Z,2.03
2023-01-04T14:51:57.262Z,1.88
2023-01-04T14:54:26.494Z,3.30
2023-01-04T14:56:54.901Z,2.00
2023-01-04T14:59:25.567Z,3.85
2023-01-04T15:01:57.145Z,3.97
2023-01-04T15:04:24.666Z,4.83
2023-01-04T15:06:56.800Z,3.45
2023-01-04T15:09:25.053Z,6.07
2023-01-04T15:11:52.050Z,5.38
2023-01-04T15:14:20.136Z,4.95
2023-01-04T15:16:47.730Z,9.40
2023-01-04T15:19:14.752Z,5.93
2023-01-04T15:21:45.036Z,13.38
2023-01-04T15:24:11.942Z,13.80
2023-01-04T15:26:41.104Z,19.52
2023-01-04T15:29:09.927Z,15.13
2023-01-04T15:31:39.886Z,21.10
2023-01-04T15:34:11.114Z,16.58
2023-01-04T15:36:40.540Z,23.67
2023-01-04T15:39:11.693Z,16.83
2023-01-04T15:41:57.401Z,13.63
2023-01-04T15:44:25.387Z,17.70
2023-01-04T15:46:53.697Z,25.67
2023-01-04T15:49:21.799Z,29.33
2023-01-04T15:51:51.747Z,22.00
2023-01-04T15:54:21.864Z,25.17
2023-01-04T15:56:49.056Z,20.80
2023-01-04T15:59:16.037Z,31.85
2023-01-04T16:01:43.221Z,25.38
2023-01-04T16:04:12.138Z,31.40
2023-01-04T16:06:40.764Z,30.85
2023-01-04T16:09:08.745Z,28.67
2023-01-04T16:11:35.627Z,24.70
2023-01-04T16:14:03.703Z,28.05
2023-01-04T16:16:32.712Z,31.17
2023-01-04T16:19:00.530Z,27.15
2023-01-04T16:21:28.958Z,30.48
2023-01-04T16:24:04.512Z,29.88
2023-01-04T16:26:35.166Z,30.42
2023-01-04T16:29:02.808Z,31.77
2023-01-04T16:31:34.628Z,29.73
2023-01-04T16:34:04.893Z,42.58
2023-01-04T16:36:32.326Z,38.30
2023-01-04T16:39:01.987Z,33.13
2023-01-04T16:41:29.928Z,29.38
2023-01-04T16:44:03.930Z,40.38
2023-01-04T16:46:37.721Z,39.60
2023-01-04T16:49:12.622Z,32.80
2023-01-04T16:51:42.189Z,32.90
2023-01-04T16:54:12.990Z,40.67
2023-01-04T16:56:42.484Z,35.15
2023-01-04T16:59:16.154Z,21.63
2023-01-04T17:01:49.786Z,27.15
2023-01-04T17:04:20.059Z,41.95
2023-01-04T17:06:48.286Z,41.67
2023-01-04T17:09:17.820Z,38.25
2023-01-04T17:12:46.264Z,37.65
2023-01-04T17:14:44.275Z,39.25
2023-01-04T17:17:11.359Z,30.40
2023-01-04T17:19:40.522Z,33.47
2023-01-04T17:22:07.509Z,38.90
2023-01-04T17:24:35.031Z,40.05
2023-01-04T17:27:01.902Z,46.42
2023-01-04T17:29:28.885Z,36.92
2023-01-04T17:31:59.547Z,41.25
2023-01-04T17:34:27.031Z,39.45
2023-01-04T17:36:54.207Z,48.35
2023-01-04T17:39:22.668Z,40.65
2023-01-04T17:41:49.688Z,40.78
2023-01-04T17:44:16.836Z,33.92
2023-01-04T17:46:43.725Z,58.45
2023-01-04T17:49:31.814Z,39.33
2023-01-04T17:52:00.577Z,41.25
2023-01-04T17:54:38.638Z,41.30
2023-01-04T17:57:08.569Z,43.72
2023-01-04T17:59:35.486Z,40.42
2023-01-04T18:02:02.557Z,36.55
2023-01-04T18:04:29.537Z,34.72
2023-01-04T18:06:59.293Z,43.22
2023-01-04T18:09:27.666Z,38.72
2023-01-04T18:12:00.406Z,38.67
2023-01-04T18:15:20.223Z,35.70
2023-01-04T18:17:49.935Z,37.80
2023-01-04T18:20:24.754Z,30.60
2023-01-04T18:22:54.950Z,29.88
2023-01-04T18:25:25.134Z,32.28
2023-01-04T18:27:52.957Z,39.97
2023-01-04T18:30:19.912Z,28.17
2023-01-04T18:32:48.682Z,30.60
2023-01-04T18:35:15.869Z,37.83
2023-01-04T18:37:45.534Z,42.08
2023-01-04T18:40:12.706Z,41.15
2023-01-04T18:42:39.618Z,39.03
2023-01-04T18:45:09.229Z,36.70
2023-01-04T18:47:36.222Z,40.13
2023-01-04T18:50:04.353Z,36.10
2023-01-04T18:52:39.077Z,40.72
2023-01-04T18:55:07.511Z,35.92
2023-01-04T18:57:41.334Z,45.08
2023-01-04T19:00:12.174Z,34.08
2023-01-04T19:02:39.599Z,38.38
2023-01-04T19:05:12.760Z,35.90
2023-01-04T19:07:40.696Z,33.60
2023-01-04T19:10:11.838Z,35.08
2023-01-04T19:12:41.829Z,36.28
2023-01-04T19:15:10.138Z,43.03
2023-01-04T19:17:37.630Z,34.83
2023-01-04T19:20:12.575Z,35.22
2023-01-04T19:22:43.410Z,35.00
2023-01-04T19:25:14.963Z,37.47
2023-01-04T19:27:48.463Z,35.42
2023-01-04T19:30:19.074Z,45.85
2023-01-04T19:32:49.569Z,52.33
2023-01-04T19:35:56.766Z,41.00
2023-01-04T19:38:26.271Z,33.88
2023-01-04T19:41:00.364Z,34.30
2023-01-04T19:43:29.598Z,39.13
2023-01-04T19:46:01.633Z,31.98
2023-01-04T19:48:55.392Z,42.80
2023-01-04T19:51:30.043Z,41.13
2023-01-04T19:53:58.962Z,34.97
2023-01-04T19:56:27.188Z,33.83
2023-01-04T19:59:00.019Z,39.05
2023-01-04T20:01:31.318Z,12.95
2023-01-04T20:04:27.921Z,36.45
2023-01-04T20:07:01.917Z,34.55
2023-01-04T20:09:34.532Z,35.33
2023-01-04T20:14:33.900Z,39.33
2023-01-04T20:17:01.905Z,34.70
2023-01-04T20:19:55.246Z,34.30
2023-01-04T20:22:22.919Z,31.52
2023-01-04T20:24:49.840Z,39.25
2023-01-04T20:27:17.048Z,35.28
2023-01-04T20:29:48.516Z,36.03
2023-01-04T20:32:15.636Z,26.50
2023-01-04T20:34:42.744Z,27.60
2023-01-04T20:37:09.706Z,39.20
2023-01-04T20:39:38.683Z,30.80
2023-01-04T20:42:24.468Z,32.33
2023-01-04T20:44:54.169Z,38.38
2023-01-04T20:47:23.211Z,30.25
2023-01-04T20:49:50.219Z,24.48
2023-01-04T20:56:42.859Z,34.28
2023-01-04T20:59:13.288Z,28.02
2023-01-04T21:01:40.368Z,31.23
2023-01-04T21:04:07.401Z,29.88
2023-01-04T21:06:35.463Z,30.23
2023-01-04T21:09:02.729Z,31.02
2023-01-04T21:11:31.285Z,24.90
2023-01-04T21:13:58.282Z,23.42
2023-01-04T21:16:25.747Z,29.05
2023-01-04T21:18:53.046Z,26.45
2023-01-04T21:21:22.692Z,26.20
2023-01-04T21:23:57.563Z,29.42
2023-01-04T21:26:25.343Z,22.00
2023-01-04T21:28:53.687Z,24.30
2023-01-04T21:31:24.464Z,32.15
2023-01-04T21:33:53.752Z,23.48
2023-01-04T21:36:27.385Z,32.28
2023-01-04T21:38:56.564Z,19.73
2023-01-04T21:41:25.944Z,35.92
2023-01-04T21:43:56.812Z,30.25
2023-01-04T21:46:27.387Z,29.55
2023-01-04T21:48:56.964Z,26.25
2023-01-04T21:51:23.918Z,37.13
2023-01-04T21:53:51.732Z,29.58
2023-01-04T21:56:23.223Z,27.83
2023-01-04T21:58:51.786Z,28.05
2023-01-04T22:01:22.166Z,30.83
2023-01-04T22:03:49.930Z,31.30
2023-01-04T22:06:17.195Z,34.65
2023-01-04T22:08:45.941Z,32.47
2023-01-04T22:11:14.601Z,27.63
2023-01-04T22:13:42.799Z,31.08
2023-01-04T22:16:16.031Z,34.03
2023-01-04T22:18:50.016Z,35.35
2023-01-04T22:21:19.531Z,30.73
2023-01-04T22:23:47.623Z,37.58
2023-01-04T22:29:17.586Z,33.65
2023-01-04T22:31:45.777Z,26.90
2023-01-04T22:34:16.235Z,28.20
2023-01-04T22:36:46.078Z,27.40
2023-01-04T22:39:14.326Z,35.10
2023-01-04T22:41:42.656Z,28.77
2023-01-04T22:44:12.248Z,32.78
2023-01-04T22:46:43.365Z,35.47
2023-01-04T22:49:15.676Z,31.98
2023-01-04T22:51:42.771Z,45.72
2023-01-04T22:57:19.648Z,32.30
2023-01-04T23:05:51.407Z,31.10
2023-01-04T23:08:18.415Z,37.80
2023-01-04T23:10:47.978Z,32.83
2023-01-04T23:13:17.522Z,29.00
2023-01-04T23:15:47.679Z,37.42
2023-01-04T23:18:15.566Z,38.65
2023-01-04T23:20:43.647Z,34.00
2023-01-04T23:23:20.816Z,37.17
2023-01-04T23:25:48.744Z,37.13
2023-01-04T23:28:16.623Z,35.50
2023-01-04T23:30:43.976Z,35.30
2023-01-04T23:33:13.776Z,32.03
2023-01-04T23:35:43.001Z,46.08
2023-01-04T23:38:21.187Z,42.40
2023-01-04T23:40:48.946Z,33.78
2023-01-04T23:43:15.939Z,29.40
2023-01-04T23:45:43.131Z,36.25
2023-01-04T23:48:10.124Z,36.75
2023-01-04T23:50:37.501Z,37.42
2023-01-04T23:53:08.529Z,34.83
2023-01-04T23:55:35.794Z,37.78
2023-01-04T23:58:05.274Z,39.92
